Flight Track Log - Related Links

Times and Time Zones

All times are in EDT time to prevent confusion due to time zone crossing. See the QLK118D flight status page for this flight to view local times or setup timezone preferences in your user account.

Time Position Orientation Groundspeed Altitude Reporting Facility
EDT Latitude Longitude Course Direction KTS MPH feet Rate Location/Type
Thu 05:21:49 AM -33.1372 151.6873 20° North 368 423 20,000  Level Aus ATC (RADAR)
Thu 05:22:19 AM -33.0875 151.7090 20° North 377 434 19,700 -537 Descending Aus ATC (RADAR)
Thu 05:22:56 AM -33.0244 151.7360 20° North 373 429 19,400 -283 Descending Aus ATC (RADAR)
Thu 05:24:26 AM -32.8791 151.7972 19° North 365 420 19,100 -78 Descending Aus ATC (RADAR)
Thu 05:26:46 AM -32.6486 151.8642 14° North 365 420 19,100  Level Aus ATC (RADAR)
Thu 05:27:51 AM -32.5399 151.8898 11° North 365 420 19,100  Level Aus ATC (RADAR)
Thu 05:28:06 AM -32.5147 151.8960 12° North 366 421 19,100  Level Aus ATC (RADAR)
Thu 05:29:34 AM -32.3685 151.9303 11° North 369 425 19,100  Level Aus ATC (RADAR)
Thu 05:29:49 AM -32.3433 151.9366 12° North 370 426 19,100  Level Aus ATC (RADAR)
Thu 05:32:21 AM -32.0840 151.9960 11° North 370 426 19,100 -27 Level Aus ATC (RADAR)
Thu 05:33:31 AM -31.9702 152.0503 22° Northeast 385 443 19,000 -71 Descending Aus ATC (RADAR)
Thu 05:33:46 AM -31.9469 152.0659 30° Northeast 384 442 19,000  Level Aus ATC (RADAR)
Thu 05:35:20 AM -31.7961 152.1576 27° Northeast 384 442 19,000  Level Aus ATC (RADAR)
Thu 05:37:55 AM -31.5496 152.3052 27° Northeast 383 441 19,000 -136 Level Aus ATC (RADAR)
Thu 05:39:00 AM -31.4466 152.3672 27° Northeast 385 443 18,500 -450 Descending Aus ATC (RADAR)
Thu 05:39:15 AM -31.4227 152.3815 27° Northeast 386 444 18,400 -500 Descending Aus ATC (RADAR)
Thu 05:40:48 AM -31.2774 152.4668 27° Northeast 375 432 17,600 -579 Descending Aus ATC (RADAR)
Thu 05:43:03 AM -31.0672 152.5908 27° Northeast 367 422 16,200 -1,054 Descending Aus ATC (RADAR)
Thu 05:44:13 AM -30.9603 152.6539 27° Northeast 359 413 14,000 -1,829 Descending Aus ATC (RADAR)
Thu 05:44:25 AM -30.9413 152.6645 25° Northeast 364 419 13,700 -1,771 Descending Aus ATC (RADAR)
Thu 05:45:58 AM -30.8122 152.7400 27° Northeast 316 364 10,900 -1,629 Descending Aus ATC (RADAR)
Thu 05:48:17 AM -30.6466 152.8369 27° Northeast 260 299 7,400 -1,427 Descending Aus ATC (RADAR)
Thu 05:49:24 AM -30.5780 152.8769 27° Northeast 241 277 6,000 -1,244 Descending Aus ATC (RADAR)
Thu 05:49:39 AM -30.5628 152.8852 25° Northeast 241 277 5,700 -1,260 Descending Aus ATC (RADAR)
Thu 05:51:04 AM -30.4913 152.9539 40° Northeast 227 261 3,900 -1,082 Descending Aus ATC (RADAR)
Thu 05:52:42 AM -30.4326 153.0136 41° Northeast 153 176 2,400 -863 Descending Aus ATC (RADAR)
Thu 05:53:44 AM -30.3945 153.0480 38° Northeast 167 192 1,600 -804 Descending Aus ATC (RADAR)
Thu 05:54:19 AM -30.3812 153.0655 49° Northeast 133 153 1,100 -857 Descending Aus ATC (RADAR)

Login

Don't have an account? Register now (free) for customized features, flight alerts, and more!